Time;durP1;ratioP1;P1;durP2;ratioP2;P2;SDS_P1;SDS_P2;PMS_P1;PMS_P2;Temp;Humidity;BMP_temperature;BMP_pressure;BME280_temperature;BME280_humidity;BME280_pressure;Samples;Min_cycle;Max_cycle;Signal;HPM_P1;HPM_P2
2022/10/23 00:00:16;;;;;;;7.70;2.60;;;13.10;99.90;;;;;;5052286;28;20233;-56
2022/10/23 00:02:42;;;;;;;6.37;2.20;;;13.00;99.90;;;;;;5051563;28;20633;-57
2022/10/23 00:05:10;;;;;;;10.40;3.20;;;13.10;99.90;;;;;;5051851;28;20262;-57
2022/10/23 00:07:37;;;;;;;6.47;2.43;;;13.00;99.90;;;;;;5052021;28;20206;-57
2022/10/23 00:10:04;;;;;;;10.03;2.47;;;13.00;99.90;;;;;;5052195;28;20271;-57
2022/10/23 00:12:31;;;;;;;11.30;2.80;;;13.00;99.90;;;;;;5052105;28;20705;-56
2022/10/23 00:14:58;;;;;;;6.20;2.53;;;13.00;99.90;;;;;;5052047;28;20205;-55
2022/10/23 00:17:24;;;;;;;7.33;2.43;;;13.00;99.90;;;;;;5051990;28;20213;-55
2022/10/23 00:19:51;;;;;;;11.17;2.57;;;12.90;99.90;;;;;;5051931;28;20720;-55
2022/10/23 00:22:19;;;;;;;12.50;2.87;;;12.90;99.90;;;;;;5051874;28;20205;-57
2022/10/23 00:24:45;;;;;;;10.00;3.00;;;12.90;99.90;;;;;;5051907;28;20761;-54
2022/10/23 00:27:12;;;;;;;5.70;2.27;;;12.90;99.90;;;;;;5051851;28;20270;-53
2022/10/23 00:29:39;;;;;;;6.03;2.60;;;12.90;99.90;;;;;;5051712;28;20793;-57
2022/10/23 00:32:05;;;;;;;11.13;2.93;;;12.90;99.90;;;;;;5051910;28;20218;-58
2022/10/23 00:34:32;;;;;;;6.87;2.53;;;12.90;99.90;;;;;;5051625;28;20202;-55
2022/10/23 00:36:58;;;;;;;9.33;2.63;;;12.90;99.90;;;;;;5051504;28;20255;-56
2022/10/23 00:39:26;;;;;;;9.30;2.37;;;12.90;99.90;;;;;;5051611;28;20213;-53
2022/10/23 00:41:53;;;;;;;8.40;2.60;;;12.90;99.90;;;;;;5051867;28;20201;-54
2022/10/23 00:44:57;;;;;;;4.27;2.53;;;12.80;99.90;;;;;;5051841;28;20217;-57
2022/10/23 00:47:24;;;;;;;5.20;2.63;;;12.80;99.90;;;;;;5051197;28;20209;-57
2022/10/23 00:49:50;;;;;;;5.40;2.70;;;12.80;99.90;;;;;;5051645;28;20290;-54
2022/10/23 00:52:17;;;;;;;7.90;2.50;;;12.80;99.90;;;;;;5051770;28;20214;-57
2022/10/23 00:54:45;;;;;;;7.27;2.40;;;12.80;99.90;;;;;;5051859;28;20627;-55
2022/10/23 00:57:14;;;;;;;13.50;2.67;;;12.80;99.90;;;;;;5051284;28;20707;-56
2022/10/23 00:59:41;;;;;;;12.70;2.97;;;12.80;99.90;;;;;;5051585;28;20232;-57
2022/10/23 01:02:08;;;;;;;7.37;2.40;;;12.80;99.90;;;;;;5051368;28;20212;-58
2022/10/23 01:04:36;;;;;;;5.13;2.07;;;12.80;99.90;;;;;;5051674;28;20370;-57
2022/10/23 01:07:08;;;;;;;7.70;2.40;;;12.80;99.90;;;;;;5051497;28;20213;-56
2022/10/23 01:09:41;;;;;;;4.83;2.43;;;12.70;99.90;;;;;;5051408;28;20747;-55
2022/10/23 01:12:18;;;;;;;6.83;2.60;;;12.70;99.90;;;;;;5051300;28;20210;-51
2022/10/23 01:14:53;;;;;;;7.03;2.33;;;12.70;99.90;;;;;;5053929;28;20201;-50
2022/10/23 01:17:25;;;;;;;6.20;2.13;;;12.70;99.90;;;;;;5055397;28;20296;-50
2022/10/23 01:20:06;;;;;;;6.43;2.50;;;12.70;99.90;;;;;;5055026;28;20628;-55
2022/10/23 01:23:00;;;;;;;8.97;2.53;;;12.70;99.90;;;;;;5055394;28;20205;-50
2022/10/23 01:25:40;;;;;;;8.13;2.60;;;12.70;99.90;;;;;;5055302;28;20262;-53
2022/10/23 01:28:12;;;;;;;7.73;3.10;;;12.60;99.90;;;;;;5054939;28;20201;-51
2022/10/23 01:30:43;;;;;;;7.53;2.57;;;12.70;99.90;;;;;;5055055;28;20230;-50
2022/10/23 01:33:13;;;;;;;9.47;2.90;;;12.70;99.90;;;;;;5054798;28;20565;-55
2022/10/23 01:35:47;;;;;;;10.40;2.60;;;12.70;99.90;;;;;;5055588;28;20201;-56
2022/10/23 01:38:18;;;;;;;7.50;2.90;;;12.70;99.90;;;;;;5054832;28;20339;-51
2022/10/23 01:40:48;;;;;;;8.80;2.63;;;12.70;99.90;;;;;;5055043;28;20636;-51
2022/10/23 01:43:19;;;;;;;6.77;2.63;;;12.80;99.90;;;;;;5054972;28;20255;-55
2022/10/23 01:45:51;;;;;;;5.57;2.73;;;12.80;99.90;;;;;;5054775;28;20221;-53
2022/10/23 01:48:22;;;;;;;10.07;3.00;;;12.80;99.90;;;;;;5054803;28;20213;-54
2022/10/23 01:50:50;;;;;;;7.67;2.57;;;12.80;99.90;;;;;;5054890;28;20229;-54
2022/10/23 01:53:18;;;;;;;4.57;2.30;;;12.80;99.90;;;;;;5054938;28;20232;-54
2022/10/23 01:55:46;;;;;;;6.60;2.80;;;12.80;99.90;;;;;;5054765;28;20206;-52
2022/10/23 01:58:16;;;;;;;4.50;2.60;;;12.80;99.90;;;;;;5054503;28;20240;-55
2022/10/23 02:00:45;;;;;;;6.03;2.73;;;12.90;99.90;;;;;;5054665;28;20228;-55
2022/10/23 02:03:15;;;;;;;9.13;2.60;;;13.00;99.90;;;;;;5054689;28;20205;-56
2022/10/23 02:05:44;;;;;;;8.57;2.43;;;13.00;99.90;;;;;;5054469;28;20267;-54
2022/10/23 02:08:11;;;;;;;10.70;2.47;;;13.00;99.90;;;;;;5054251;28;20292;-56
2022/10/23 02:10:44;;;;;;;5.27;2.07;;;13.00;99.90;;;;;;5054259;28;20226;-56
2022/10/23 02:13:16;;;;;;;5.57;2.77;;;13.10;99.90;;;;;;5054555;28;20236;-58
2022/10/23 02:15:47;;;;;;;5.10;2.30;;;13.10;99.90;;;;;;5054591;28;20202;-55
2022/10/23 02:18:27;;;;;;;5.23;2.13;;;13.10;99.90;;;;;;5054138;28;20206;-56
2022/10/23 02:20:57;;;;;;;5.87;2.63;;;13.10;99.90;;;;;;5054287;28;20360;-57
2022/10/23 02:23:30;;;;;;;6.03;2.20;;;13.10;99.90;;;;;;5054021;28;20206;-55
2022/10/23 02:26:02;;;;;;;5.67;2.47;;;13.00;99.90;;;;;;5053270;28;20644;-54
2022/10/23 02:28:36;;;;;;;5.53;2.17;;;13.00;99.90;;;;;;5054183;28;20213;-56
2022/10/23 02:31:07;;;;;;;5.17;2.33;;;13.00;99.90;;;;;;5053943;28;20280;-57
2022/10/23 02:33:36;;;;;;;4.63;2.00;;;13.00;99.90;;;;;;5053871;28;20283;-55
2022/10/23 02:36:03;;;;;;;5.50;2.23;;;13.00;99.90;;;;;;5053723;28;20209;-54
2022/10/23 02:38:33;;;;;;;5.27;2.50;;;13.00;99.90;;;;;;5053792;28;20260;-53
2022/10/23 02:41:30;;;;;;;8.70;2.67;;;13.00;99.90;;;;;;5053779;28;20734;-54
2022/10/23 02:44:04;;;;;;;10.53;2.60;;;13.00;99.90;;;;;;4995573;28;20210;-56
2022/10/23 02:46:41;;;;;;;8.77;2.40;;;13.00;99.90;;;;;;5053818;28;20225;-53
2022/10/23 02:49:13;;;;;;;8.27;2.37;;;13.00;99.90;;;;;;5053709;28;20636;-52
2022/10/23 02:51:51;;;;;;;7.00;2.27;;;13.00;99.90;;;;;;5053718;28;20251;-52
2022/10/23 02:54:23;;;;;;;8.00;2.40;;;13.10;99.90;;;;;;5053572;28;20217;-53
2022/10/23 02:56:59;;;;;;;5.80;2.20;;;13.10;99.90;;;;;;5053374;28;20212;-56
2022/10/23 02:59:34;;;;;;;4.73;2.17;;;13.10;99.90;;;;;;5053622;28;20205;-57
2022/10/23 03:02:06;;;;;;;5.90;2.30;;;13.20;99.90;;;;;;5053666;28;20226;-57
2022/10/23 03:04:33;;;;;;;8.50;2.43;;;13.20;99.90;;;;;;5053452;28;20262;-55
2022/10/23 03:07:00;;;;;;;3.37;1.93;;;13.20;99.90;;;;;;5052975;28;20364;-55
2022/10/23 03:09:27;;;;;;;4.77;2.00;;;13.20;99.90;;;;;;5053172;28;20730;-56
2022/10/23 03:11:53;;;;;;;10.37;2.33;;;13.20;99.90;;;;;;5053356;28;20209;-57
2022/10/23 03:14:20;;;;;;;4.23;2.30;;;13.20;99.90;;;;;;5053377;28;20205;-55
2022/10/23 03:16:47;;;;;;;6.67;2.07;;;13.20;99.90;;;;;;5053020;28;20204;-56
2022/10/23 03:19:15;;;;;;;5.73;2.20;;;13.10;99.90;;;;;;5053017;28;20239;-57
2022/10/23 03:21:41;;;;;;;7.67;2.00;;;13.20;99.90;;;;;;5053113;28;20205;-55
2022/10/23 03:24:08;;;;;;;4.27;1.83;;;13.20;99.90;;;;;;5053160;28;20593;-56
2022/10/23 03:26:35;;;;;;;5.93;2.13;;;13.20;99.90;;;;;;5052737;28;20229;-53
2022/10/23 03:29:01;;;;;;;7.27;2.60;;;13.20;99.90;;;;;;5052700;28;20247;-56
2022/10/23 03:31:28;;;;;;;5.87;2.10;;;13.20;99.90;;;;;;5052805;28;20274;-56
2022/10/23 03:33:55;;;;;;;4.63;1.97;;;13.20;99.90;;;;;;5052730;28;20240;-54
2022/10/23 03:36:23;;;;;;;8.33;2.00;;;13.20;99.90;;;;;;5052394;28;20685;-54
2022/10/23 03:38:50;;;;;;;4.60;1.93;;;13.20;99.90;;;;;;5052948;28;20255;-57
2022/10/23 03:41:17;;;;;;;7.30;2.30;;;13.30;99.90;;;;;;5052745;28;20272;-53
2022/10/23 03:43:43;;;;;;;7.33;2.93;;;13.30;99.90;;;;;;5052716;28;20651;-57
2022/10/23 03:46:11;;;;;;;9.43;2.40;;;13.40;99.90;;;;;;5052165;28;20699;-57
2022/10/23 03:48:39;;;;;;;3.43;2.00;;;13.40;99.90;;;;;;5052415;28;20217;-57
2022/10/23 03:51:06;;;;;;;10.10;2.50;;;13.40;99.90;;;;;;5052633;28;20230;-56
2022/10/23 03:53:34;;;;;;;2.63;1.73;;;13.50;99.90;;;;;;5052411;28;20205;-53
2022/10/23 03:56:01;;;;;;;6.00;2.00;;;13.50;99.90;;;;;;5052315;28;20202;-55
2022/10/23 03:58:28;;;;;;;4.23;1.63;;;13.60;99.90;;;;;;5052205;28;20240;-58
2022/10/23 04:00:55;;;;;;;3.60;1.73;;;13.60;99.90;;;;;;5052306;28;20611;-56
2022/10/23 04:03:22;;;;;;;5.17;2.00;;;13.60;99.90;;;;;;5052231;28;20622;-56
2022/10/23 04:05:48;;;;;;;4.43;2.00;;;13.60;99.90;;;;;;5052072;28;20711;-57
2022/10/23 04:08:15;;;;;;;8.30;2.20;;;13.60;99.90;;;;;;5051836;28;20210;-56
2022/10/23 04:10:43;;;;;;;4.40;2.07;;;13.60;99.90;;;;;;5052161;28;20225;-56
2022/10/23 04:13:10;;;;;;;2.40;1.53;;;13.60;99.90;;;;;;5052014;28;20210;-53
2022/10/23 04:15:37;;;;;;;5.67;1.73;;;13.60;99.90;;;;;;5052199;28;20308;-58
2022/10/23 04:18:04;;;;;;;3.77;1.83;;;13.60;99.90;;;;;;5051856;28;20206;-55
2022/10/23 04:20:31;;;;;;;7.47;2.00;;;13.60;99.90;;;;;;5051998;28;20273;-54
2022/10/23 04:22:58;;;;;;;7.87;2.00;;;13.50;99.90;;;;;;5052159;28;20213;-54
2022/10/23 04:25:25;;;;;;;3.63;1.83;;;13.50;99.90;;;;;;5051963;28;20264;-58
2022/10/23 04:27:53;;;;;;;9.77;2.37;;;13.50;99.90;;;;;;5051754;28;20209;-57
2022/10/23 04:30:19;;;;;;;5.60;1.80;;;13.50;99.90;;;;;;5051950;28;20245;-58
2022/10/23 04:32:46;;;;;;;3.87;1.73;;;13.50;99.90;;;;;;5051879;28;20656;-53
2022/10/23 04:35:13;;;;;;;7.83;1.80;;;13.50;99.90;;;;;;5051913;28;20205;-54
2022/10/23 04:37:39;;;;;;;5.80;1.37;;;13.50;99.90;;;;;;5051845;28;20210;-53
2022/10/23 04:40:08;;;;;;;2.80;1.77;;;13.50;99.90;;;;;;5034260;28;20213;-57
2022/10/23 04:42:34;;;;;;;4.47;2.00;;;13.50;99.90;;;;;;5051752;28;20201;-55
2022/10/23 04:45:02;;;;;;;4.27;1.93;;;13.50;99.90;;;;;;5051588;28;20627;-57
2022/10/23 04:47:29;;;;;;;2.87;1.63;;;13.40;99.90;;;;;;5051324;28;20777;-56
2022/10/23 04:49:56;;;;;;;7.03;2.53;;;13.40;99.90;;;;;;5056826;28;20743;-54
2022/10/23 04:52:22;;;;;;;5.10;1.80;;;13.40;99.90;;;;;;5058308;28;20663;-54
2022/10/23 04:54:49;;;;;;;4.60;2.10;;;13.40;99.90;;;;;;5058267;28;20259;-55
2022/10/23 04:57:16;;;;;;;4.40;1.80;;;13.40;99.90;;;;;;5058071;28;20205;-56
2022/10/23 04:59:42;;;;;;;4.30;1.90;;;13.40;99.90;;;;;;5058025;28;20233;-56
2022/10/23 05:02:10;;;;;;;3.20;1.50;;;13.40;99.90;;;;;;5059320;28;20263;-57
2022/10/23 05:04:37;;;;;;;2.40;1.50;;;13.40;99.90;;;;;;5059341;28;20648;-56
2022/10/23 05:07:05;;;;;;;7.20;2.10;;;13.40;99.90;;;;;;5058721;28;20703;-56
2022/10/23 05:09:31;;;;;;;3.47;1.80;;;13.40;99.90;;;;;;5058106;28;20263;-55
2022/10/23 05:11:58;;;;;;;3.43;2.10;;;13.40;99.90;;;;;;5058371;28;20266;-56
2022/10/23 05:14:25;;;;;;;4.13;1.77;;;13.40;99.90;;;;;;5057858;28;20270;-54
2022/10/23 05:16:57;;;;;;;4.30;1.67;;;13.40;99.90;;;;;;5058152;28;20201;-56
2022/10/23 05:19:29;;;;;;;4.50;1.60;;;13.40;99.90;;;;;;5058110;28;20206;-57
2022/10/23 05:21:57;;;;;;;7.40;2.20;;;13.40;99.90;;;;;;5058216;28;20625;-56
2022/10/23 05:24:24;;;;;;;8.20;2.43;;;13.40;99.90;;;;;;5058261;28;20235;-55
2022/10/23 05:26:52;;;;;;;4.67;1.83;;;13.40;99.90;;;;;;5057868;28;20221;-54
2022/10/23 05:29:20;;;;;;;3.77;1.60;;;13.40;99.90;;;;;;5057971;28;20304;-58
2022/10/23 05:31:48;;;;;;;3.03;1.50;;;13.40;99.90;;;;;;5058293;28;20201;-57
2022/10/23 05:34:16;;;;;;;3.77;1.83;;;13.40;99.90;;;;;;5057832;28;20210;-55
2022/10/23 05:36:45;;;;;;;5.57;1.67;;;13.50;99.90;;;;;;5057747;28;20210;-56
2022/10/23 05:39:11;;;;;;;4.60;1.87;;;13.50;99.90;;;;;;5058007;28;20266;-56
2022/10/23 05:41:38;;;;;;;4.50;1.67;;;13.50;99.90;;;;;;5057941;28;20233;-52
2022/10/23 05:44:05;;;;;;;5.57;2.00;;;13.50;99.90;;;;;;5057931;28;20668;-56
2022/10/23 05:46:32;;;;;;;4.77;1.83;;;13.60;99.90;;;;;;5057596;28;20221;-52
2022/10/23 05:48:58;;;;;;;2.23;1.50;;;13.60;99.90;;;;;;5057926;28;20205;-50
2022/10/23 05:51:25;;;;;;;5.93;1.67;;;13.70;99.90;;;;;;5057723;28;20225;-52
2022/10/23 05:53:55;;;;;;;5.10;1.63;;;13.70;99.90;;;;;;5057857;28;20566;-54
2022/10/23 05:56:21;;;;;;;1.80;1.50;;;13.70;99.90;;;;;;5057428;28;20236;-54
2022/10/23 05:58:48;;;;;;;3.23;1.67;;;13.70;99.90;;;;;;5057890;28;20209;-51
2022/10/23 06:01:17;;;;;;;11.07;1.80;;;13.80;99.90;;;;;;5054013;28;20273;-55
2022/10/23 06:03:43;;;;;;;4.70;1.90;;;13.80;99.90;;;;;;5054373;28;20205;-52
2022/10/23 06:06:10;;;;;;;3.83;1.80;;;13.80;99.90;;;;;;5054302;28;20256;-54
2022/10/23 06:08:37;;;;;;;3.80;1.57;;;13.80;99.90;;;;;;5054489;28;20696;-57
2022/10/23 06:11:10;;;;;;;3.03;1.60;;;13.80;99.90;;;;;;5054444;28;20229;-52
2022/10/23 06:13:37;;;;;;;4.67;2.10;;;13.80;99.90;;;;;;5054490;28;20259;-54
2022/10/23 06:16:10;;;;;;;2.37;1.37;;;13.80;99.90;;;;;;5054093;28;20201;-54
2022/10/23 06:18:37;;;;;;;2.27;1.60;;;13.80;99.90;;;;;;5054180;28;20210;-58
2022/10/23 06:21:04;;;;;;;2.90;1.60;;;13.80;99.90;;;;;;5054318;28;20225;-57
2022/10/23 06:23:31;;;;;;;6.20;2.03;;;13.80;99.90;;;;;;5054405;28;20632;-52
2022/10/23 06:25:58;;;;;;;4.23;2.03;;;13.80;99.90;;;;;;5053944;28;20644;-54
2022/10/23 06:28:26;;;;;;;4.50;1.60;;;13.80;99.90;;;;;;5054140;28;20256;-54
2022/10/23 06:30:53;;;;;;;5.00;2.40;;;13.80;99.90;;;;;;5053961;28;20630;-55
2022/10/23 06:33:20;;;;;;;2.93;1.93;;;13.80;99.90;;;;;;5053738;28;20252;-55
2022/10/23 06:35:47;;;;;;;2.07;1.70;;;13.80;99.90;;;;;;5054034;28;20209;-56
2022/10/23 06:38:14;;;;;;;6.40;1.70;;;13.80;99.90;;;;;;5053914;28;20664;-52
2022/10/23 06:40:40;;;;;;;3.83;1.57;;;13.80;99.90;;;;;;5053927;28;20313;-56
2022/10/23 06:43:07;;;;;;;4.47;1.93;;;13.90;99.90;;;;;;5054095;28;20251;-56
2022/10/23 06:45:36;;;;;;;3.33;1.83;;;13.90;99.90;;;;;;5053761;28;20209;-57
2022/10/23 06:48:02;;;;;;;4.60;1.53;;;13.90;99.90;;;;;;5053596;28;20221;-54
2022/10/23 06:50:30;;;;;;;5.47;1.60;;;14.00;99.90;;;;;;5053796;28;20639;-54
2022/10/23 06:52:57;;;;;;;4.97;1.70;;;14.00;99.90;;;;;;5053785;28;20239;-53
2022/10/23 06:55:24;;;;;;;6.37;1.50;;;14.10;99.90;;;;;;5053714;28;20214;-50
2022/10/23 06:57:51;;;;;;;4.97;1.40;;;14.10;99.90;;;;;;5053544;28;20264;-55
2022/10/23 07:00:17;;;;;;;4.70;1.60;;;14.20;99.90;;;;;;5053705;28;20256;-56
2022/10/23 07:02:45;;;;;;;5.23;1.50;;;14.20;99.90;;;;;;5053385;28;20274;-54
2022/10/23 07:05:12;;;;;;;3.17;1.60;;;14.30;99.90;;;;;;5053719;28;20217;-54
2022/10/23 07:07:39;;;;;;;4.10;1.70;;;14.30;99.90;;;;;;5053029;28;20279;-53
2022/10/23 07:10:06;;;;;;;2.97;1.50;;;14.40;99.90;;;;;;5053425;28;20241;-56
2022/10/23 07:12:33;;;;;;;3.03;1.67;;;14.40;99.90;;;;;;5052756;28;20201;-53
2022/10/23 07:14:59;;;;;;;5.03;1.77;;;14.50;99.90;;;;;;5053073;28;20214;-54
2022/10/23 07:17:28;;;;;;;2.27;1.40;;;14.50;99.90;;;;;;5053100;28;20281;-56
2022/10/23 07:19:56;;;;;;;3.73;1.80;;;14.40;99.90;;;;;;5053133;28;20229;-57
2022/10/23 07:22:23;;;;;;;4.63;1.60;;;14.40;99.90;;;;;;5052995;28;20213;-56
2022/10/23 07:24:50;;;;;;;4.10;1.43;;;14.40;99.90;;;;;;5053057;28;20214;-55
2022/10/23 07:27:16;;;;;;;4.67;1.60;;;14.50;99.90;;;;;;5052679;28;20221;-56
2022/10/23 07:29:43;;;;;;;4.87;1.53;;;14.50;99.90;;;;;;5052758;28;20241;-58
2022/10/23 07:32:10;;;;;;;7.73;1.60;;;14.50;99.90;;;;;;5052953;28;20213;-53
2022/10/23 07:34:37;;;;;;;2.87;1.30;;;14.50;99.90;;;;;;5052590;28;20210;-57
2022/10/23 07:37:05;;;;;;;9.63;1.33;;;14.50;99.90;;;;;;5052619;28;20197;-57
2022/10/23 07:39:31;;;;;;;5.10;1.67;;;14.50;99.90;;;;;;5052534;28;20206;-56
2022/10/23 07:41:58;;;;;;;3.90;1.70;;;14.50;99.90;;;;;;5052476;28;20209;-56
2022/10/23 07:44:25;;;;;;;2.03;1.40;;;14.60;99.90;;;;;;5052736;28;20752;-56
2022/10/23 07:46:51;;;;;;;3.07;1.60;;;14.60;99.90;;;;;;5052355;28;20251;-57
2022/10/23 07:49:18;;;;;;;4.07;1.60;;;14.60;99.90;;;;;;5052675;28;20353;-57
2022/10/23 07:51:45;;;;;;;3.23;1.53;;;14.70;99.90;;;;;;5052258;28;20252;-56
2022/10/23 07:54:13;;;;;;;5.90;1.60;;;14.70;99.90;;;;;;5052773;28;20206;-57
2022/10/23 07:56:39;;;;;;;6.73;1.57;;;14.80;99.90;;;;;;5052183;28;20218;-53
2022/10/23 07:59:06;;;;;;;2.27;1.27;;;14.90;99.90;;;;;;5052542;28;20213;-57
2022/10/23 08:01:34;;;;;;;3.47;2.00;;;14.90;99.90;;;;;;5052272;28;20648;-57
2022/10/23 08:04:01;;;;;;;4.63;1.70;;;15.00;99.90;;;;;;5052411;28;20259;-55
2022/10/23 08:06:28;;;;;;;5.83;1.83;;;15.10;99.90;;;;;;5052124;28;20272;-56
2022/10/23 08:08:55;;;;;;;3.77;1.50;;;15.20;99.90;;;;;;5052395;28;20229;-54
2022/10/23 08:11:26;;;;;;;4.97;1.50;;;15.20;99.90;;;;;;5052049;28;20233;-55
2022/10/23 08:13:54;;;;;;;1.70;1.23;;;15.30;99.90;;;;;;5052297;28;20201;-54
2022/10/23 08:16:22;;;;;;;2.70;1.43;;;15.40;99.90;;;;;;5051926;28;20209;-57
2022/10/23 08:18:49;;;;;;;3.07;1.50;;;15.50;99.90;;;;;;5052290;28;20684;-56
2022/10/23 08:21:16;;;;;;;4.63;1.40;;;15.60;99.90;;;;;;5052049;28;20321;-57
2022/10/23 08:23:43;;;;;;;3.70;1.20;;;15.70;99.90;;;;;;5051266;28;20210;-56
2022/10/23 08:26:11;;;;;;;5.70;1.37;;;15.80;99.90;;;;;;5051564;28;20209;-57
2022/10/23 08:28:39;;;;;;;2.93;1.30;;;15.80;99.90;;;;;;5051952;28;20230;-57
2022/10/23 08:31:10;;;;;;;9.60;1.30;;;15.90;99.90;;;;;;5052225;28;20229;-57
2022/10/23 08:33:37;;;;;;;9.23;1.40;;;16.00;99.90;;;;;;5051980;28;20677;-53
2022/10/23 08:36:04;;;;;;;6.37;1.30;;;16.10;99.90;;;;;;5051549;28;20255;-53
2022/10/23 08:38:32;;;;;;;1.93;1.00;;;16.30;99.90;;;;;;5052209;28;20263;-50
2022/10/23 08:41:00;;;;;;;4.33;1.13;;;16.40;99.90;;;;;;5051859;28;20316;-55
2022/10/23 08:43:34;;;;;;;7.40;1.10;;;16.50;99.90;;;;;;5051858;28;20212;-56
2022/10/23 08:46:07;;;;;;;3.17;1.30;;;16.60;99.90;;;;;;5051407;28;20214;-57
2022/10/23 08:48:39;;;;;;;2.37;1.00;;;16.70;99.90;;;;;;5051472;28;20233;-55
2022/10/23 08:51:11;;;;;;;3.07;1.13;;;16.80;99.90;;;;;;5051799;28;20230;-55
2022/10/23 08:53:42;;;;;;;3.23;1.20;;;16.90;99.90;;;;;;5052058;28;20335;-55
2022/10/23 08:56:14;;;;;;;3.20;0.90;;;17.10;99.90;;;;;;5051604;28;20209;-55
2022/10/23 08:58:45;;;;;;;6.43;1.10;;;17.20;99.90;;;;;;5051566;28;20251;-57
2022/10/23 09:01:34;;;;;;;3.73;1.17;;;17.30;99.90;;;;;;5051565;28;20280;-58
2022/10/23 09:04:01;;;;;;;2.37;1.13;;;17.50;99.90;;;;;;5045363;28;20997;-56
2022/10/23 09:06:35;;;;;;;3.23;0.90;;;17.60;99.90;;;;;;5046147;28;20217;-55
2022/10/23 09:09:18;;;;;;;3.87;1.20;;;17.70;99.90;;;;;;5042768;28;20627;-54
2022/10/23 09:11:49;;;;;;;3.03;1.03;;;17.80;99.90;;;;;;5051122;28;20205;-54
2022/10/23 09:14:34;;;;;;;2.40;0.70;;;17.90;99.90;;;;;;5051311;28;20209;-54
2022/10/23 09:17:14;;;;;;;3.67;1.20;;;18.00;99.90;;;;;;5050246;28;20275;-60
2022/10/23 09:19:42;;;;;;;4.97;1.50;;;18.00;99.90;;;;;;5048073;28;20716;-59
2022/10/23 09:22:11;;;;;;;2.43;1.23;;;18.00;99.90;;;;;;5048108;28;20202;-60
2022/10/23 09:24:42;;;;;;;2.00;0.93;;;17.90;99.90;;;;;;5051560;28;20202;-59
2022/10/23 09:27:15;;;;;;;3.03;1.20;;;17.90;99.90;;;;;;5051142;28;20217;-60
2022/10/23 09:29:48;;;;;;;7.67;1.20;;;17.90;99.90;;;;;;5051389;28;20261;-59
2022/10/23 09:32:16;;;;;;;4.53;1.17;;;17.80;99.90;;;;;;5051215;28;20240;-59
2022/10/23 09:34:52;;;;;;;3.43;1.10;;;17.90;99.90;;;;;;5051979;28;20259;-54
2022/10/23 09:37:23;;;;;;;2.97;1.07;;;17.90;99.90;;;;;;5055095;28;20205;-54
2022/10/23 09:40:01;;;;;;;3.27;0.83;;;17.90;99.90;;;;;;5055014;28;20263;-55
2022/10/23 09:42:27;;;;;;;3.13;1.07;;;17.90;99.90;;;;;;5054907;28;20763;-56
2022/10/23 09:44:56;;;;;;;7.03;1.10;;;17.90;99.90;;;;;;5055054;28;20688;-55
2022/10/23 09:47:25;;;;;;;1.60;1.00;;;17.80;99.90;;;;;;5054421;28;20261;-50
2022/10/23 09:49:53;;;;;;;1.63;0.97;;;17.80;99.90;;;;;;5054985;28;20605;-57
2022/10/23 09:52:25;;;;;;;1.33;1.00;;;17.80;99.90;;;;;;5054939;28;20206;-54
2022/10/23 09:54:55;;;;;;;1.50;1.07;;;17.80;99.90;;;;;;5054769;28;20248;-50
2022/10/23 09:57:27;;;;;;;2.33;1.00;;;17.80;99.90;;;;;;5054318;28;20206;-52
2022/10/23 09:59:56;;;;;;;2.73;1.10;;;18.00;99.90;;;;;;5054810;28;20306;-55
2022/10/23 10:02:28;;;;;;;4.83;1.13;;;18.00;99.90;;;;;;5054729;28;20654;-55
2022/10/23 10:04:55;;;;;;;2.57;1.20;;;18.00;99.90;;;;;;5054671;28;20202;-56
2022/10/23 10:07:23;;;;;;;2.77;1.13;;;18.00;99.90;;;;;;5054206;28;20232;-53
2022/10/23 10:09:52;;;;;;;2.97;1.00;;;18.00;99.90;;;;;;5054290;28;20226;-57
2022/10/23 10:12:29;;;;;;;1.77;1.00;;;18.20;96.50;;;;;;5054547;28;20657;-54
2022/10/23 10:15:08;;;;;;;4.87;1.03;;;18.20;99.90;;;;;;5054524;28;20609;-55
2022/10/23 10:17:43;;;;;;;2.43;1.07;;;18.40;99.90;;;;;;5054349;28;20244;-56
2022/10/23 10:20:38;;;;;;;1.57;0.83;;;18.50;99.90;;;;;;5053964;28;20275;-57
2022/10/23 10:23:11;;;;;;;3.13;0.90;;;18.60;90.10;;;;;;5054569;28;20205;-52
2022/10/23 10:25:44;;;;;;;6.10;1.63;;;18.60;85.00;;;;;;5054326;28;20206;-56
2022/10/23 10:28:26;;;;;;;2.93;1.00;;;18.60;94.20;;;;;;5053710;28;20233;-56
2022/10/23 10:31:05;;;;;;;3.47;0.90;;;18.70;85.70;;;;;;5054033;28;20287;-57
2022/10/23 10:33:41;;;;;;;4.80;1.20;;;18.60;93.10;;;;;;5054124;28;20208;-56
2022/10/23 10:36:29;;;;;;;1.60;0.80;;;18.70;82.70;;;;;;5053919;28;20221;-55
2022/10/23 10:38:59;;;;;;;3.23;0.90;;;18.70;81.00;;;;;;5053919;28;20206;-52
2022/10/23 10:41:42;;;;;;;3.37;1.10;;;18.80;77.20;;;;;;5053744;28;20236;-52
2022/10/23 10:44:34;;;;;;;5.13;1.40;;;18.70;80.10;;;;;;5047485;28;20264;-55
2022/10/23 10:47:13;;;;;;;5.20;1.00;;;18.80;67.10;;;;;;5050385;28;20217;-60
2022/10/23 10:49:49;;;;;;;3.23;1.17;;;18.80;58.00;;;;;;5053080;28;20228;-62
2022/10/23 10:52:22;;;;;;;2.87;1.13;;;18.80;85.30;;;;;;5053110;28;20209;-62
2022/10/23 10:54:59;;;;;;;3.67;1.07;;;18.90;88.40;;;;;;5053385;28;20210;-62
2022/10/23 10:57:32;;;;;;;3.23;1.40;;;18.90;58.10;;;;;;5052710;28;20250;-60
2022/10/23 11:00:04;;;;;;;5.57;1.40;;;18.90;67.90;;;;;;5052995;28;20312;-60
2022/10/23 11:02:38;;;;;;;10.17;1.23;;;19.00;63.30;;;;;;5053365;28;20208;-60
2022/10/23 11:05:18;;;;;;;9.77;2.13;;;19.00;44.20;;;;;;5052921;28;20212;-61
2022/10/23 11:07:55;;;;;;;1.63;1.07;;;19.00;55.30;;;;;;5052712;28;20269;-61
2022/10/23 11:10:22;;;;;;;3.23;1.50;;;19.00;42.80;;;;;;5053051;28;20229;-58
2022/10/23 11:12:50;;;;;;;1.80;1.20;;;19.00;42.40;;;;;;5052956;28;20249;-62
2022/10/23 11:15:22;;;;;;;3.43;1.37;;;19.10;47.80;;;;;;5053054;28;20267;-57
2022/10/23 11:17:52;;;;;;;5.50;1.40;;;19.00;40.80;;;;;;5052502;28;20201;-60
2022/10/23 11:20:52;;;;;;;6.63;1.30;;;19.10;45.50;;;;;;5052640;28;20232;-60
2022/10/23 11:23:51;;;;;;;5.43;1.30;;;19.00;10.40;;;;;;5047998;28;20625;-60
2022/10/23 11:26:31;;;;;;;3.03;1.30;;;19.10;29.20;;;;;;5041883;28;20238;-61
2022/10/23 11:29:12;;;;;;;2.73;1.00;;;19.30;26.90;;;;;;5052426;28;20228;-59
2022/10/23 11:31:50;;;;;;;3.00;1.47;;;19.30;19.00;;;;;;5052565;28;20233;-60
2022/10/23 11:34:59;;;;;;;4.00;1.27;;;19.50;1.00;;;;;;5052741;28;20201;-61
2022/10/23 11:37:27;;;;;;;4.80;1.20;;;19.60;1.00;;;;;;5039117;28;20202;-60
2022/10/23 11:40:01;;;;;;;3.03;1.10;;;19.70;1.00;;;;;;5052367;28;20589;-60
2022/10/23 11:42:32;;;;;;;4.00;1.07;;;19.80;1.00;;;;;;5047477;28;20198;-62
2022/10/23 11:44:59;;;;;;;3.80;0.80;;;19.80;1.00;;;;;;5051416;28;20629;-60
2022/10/23 11:47:31;;;;;;;2.53;1.03;;;19.70;1.00;;;;;;5051491;28;20742;-58
2022/10/23 11:50:15;;;;;;;4.27;0.90;;;19.70;1.00;;;;;;5052355;28;20232;-58
2022/10/23 11:52:56;;;;;;;4.10;1.00;;;19.70;1.00;;;;;;5052056;28;20206;-58
2022/10/23 11:55:24;;;;;;;2.10;0.90;;;19.70;1.00;;;;;;5052314;28;20201;-58
2022/10/23 11:58:30;;;;;;;1.63;0.80;;;19.70;1.00;;;;;;5051623;28;20251;-58
2022/10/23 12:01:04;;;;;;;5.20;1.10;;;19.60;1.00;;;;;;4971376;28;20236;-58
2022/10/23 12:03:40;;;;;;;5.03;0.90;;;19.60;1.00;;;;;;4971168;28;20212;-58
2022/10/23 12:06:18;;;;;;;5.23;0.90;;;19.80;1.00;;;;;;5019408;28;20232;-58
2022/10/23 12:08:52;;;;;;;5.90;1.17;;;19.80;1.00;;;;;;5051682;28;20276;-57
2022/10/23 12:11:28;;;;;;;4.73;1.00;;;19.80;1.00;;;;;;5052276;28;20316;-58
2022/10/23 12:13:54;;;;;;;4.40;1.33;;;19.60;1.00;;;;;;5052244;28;20631;-58
2022/10/23 12:16:21;;;;;;;1.70;1.00;;;19.50;1.00;;;;;;5050661;28;20201;-58
2022/10/23 12:18:51;;;;;;;3.23;0.77;;;19.50;1.00;;;;;;5050745;28;20205;-58
2022/10/23 12:21:20;;;;;;;7.33;1.00;;;19.50;1.00;;;;;;5052305;28;20301;-58
2022/10/23 12:24:16;;;;;;;2.57;1.10;;;19.60;1.00;;;;;;5052429;28;20613;-58
2022/10/23 12:27:01;;;;;;;3.00;1.10;;;19.60;1.00;;;;;;5052270;28;20208;-52
2022/10/23 12:29:40;;;;;;;4.23;1.20;;;19.50;1.00;;;;;;5047909;28;20222;-58
2022/10/23 12:32:23;;;;;;;4.97;1.20;;;19.50;1.00;;;;;;5052248;28;20263;-58
2022/10/23 12:35:04;;;;;;;3.53;1.30;;;19.60;1.00;;;;;;5051873;28;20559;-64
2022/10/23 12:37:48;;;;;;;1.33;0.97;;;19.70;1.00;;;;;;5051692;28;20632;-65
2022/10/23 12:40:16;;;;;;;2.03;1.20;;;19.60;1.00;;;;;;5051639;28;20233;-61
2022/10/23 12:42:51;;;;;;;6.83;1.20;;;19.70;1.00;;;;;;5052039;28;20205;-62
2022/10/23 12:45:20;;;;;;;2.83;1.20;;;19.80;1.00;;;;;;5051928;28;20209;-57
2022/10/23 12:47:48;;;;;;;4.63;1.27;;;19.80;1.00;;;;;;5051544;28;20205;-57
2022/10/23 12:50:18;;;;;;;5.63;1.40;;;19.80;1.00;;;;;;5051555;28;20644;-58
2022/10/23 12:52:52;;;;;;;5.53;1.23;;;19.80;1.00;;;;;;5051937;28;20236;-56
2022/10/23 12:55:20;;;;;;;2.40;1.27;;;19.90;1.00;;;;;;5051968;28;20274;-58
2022/10/23 12:57:47;;;;;;;2.83;1.20;;;19.90;1.00;;;;;;5051456;28;20663;-57
2022/10/23 13:00:16;;;;;;;4.47;1.40;;;19.80;1.00;;;;;;5051659;28;20279;-57
2022/10/23 13:02:43;;;;;;;5.13;1.10;;;19.90;1.00;;;;;;5051634;28;20266;-53
2022/10/23 13:05:14;;;;;;;1.87;1.00;;;19.80;1.00;;;;;;5051511;28;20628;-57